<?xml version="1.0" encoding="utf-8"?>
<gpx xmlns:xsi="http://www.w3.org/2001/XMLSchema-instance" xmlns:xsd="http://www.w3.org/2001/XMLSchema" version="1.1" creator="Shapelink.com" xmlns="http://www.topografix.com/GPX/1/1" xmlns:gpxtpx="http://www.garmin.com/xmlschemas/TrackPointExtension/v1">
  <metadata>
    <name>Övrigt 1.58 km, 2019-06-02</name>
    <desc></desc>
    <author><name>Marian Moron</name></author> 
    <time>2019-06-02T21:20:53Z</time>
  </metadata>
  <trk>
    <name>Övrigt 1.58 km, 2019-06-02</name>
    <trkseg>
      <trkpt lat="51.230067439517" lon="4.458134545703">
        <ele>0</ele>
        <time>2019-06-02T21:20:53Z</time>
      </trkpt>
      <trkpt lat="51.230060063445" lon="4.45818760313">
        <ele>0</ele>
        <time>2019-06-02T21:20:57Z</time>
      </trkpt>
      <trkpt lat="51.230043383464" lon="4.458564201897">
        <ele>2.4</ele>
        <time>2019-06-02T21:21:27Z</time>
      </trkpt>
      <trkpt lat="51.230115635442" lon="4.458711220423">
        <ele>5.8</ele>
        <time>2019-06-02T21:21:50Z</time>
      </trkpt>
      <trkpt lat="51.230258211561" lon="4.458684482162">
        <ele>5.4</ele>
        <time>2019-06-02T21:22:22Z</time>
      </trkpt>
      <trkpt lat="51.230493491494" lon="4.458787244256">
        <ele>6.4</ele>
        <time>2019-06-02T21:23:02Z</time>
      </trkpt>
      <trkpt lat="51.230478823169" lon="4.458925377968">
        <ele>4.4</ele>
        <time>2019-06-02T21:23:15Z</time>
      </trkpt>
      <trkpt lat="51.230536658279" lon="4.459084131154">
        <ele>4.8</ele>
        <time>2019-06-02T21:23:36Z</time>
      </trkpt>
      <trkpt lat="51.230588626059" lon="4.459530215872">
        <ele>5</ele>
        <time>2019-06-02T21:24:09Z</time>
      </trkpt>
      <trkpt lat="51.230586111489" lon="4.459713611844">
        <ele>5.2</ele>
        <time>2019-06-02T21:24:41Z</time>
      </trkpt>
      <trkpt lat="51.230609245533" lon="4.459807405305">
        <ele>5</ele>
        <time>2019-06-02T21:24:49Z</time>
      </trkpt>
      <trkpt lat="51.230625674057" lon="4.460084930014">
        <ele>4.6</ele>
        <time>2019-06-02T21:25:20Z</time>
      </trkpt>
      <trkpt lat="51.230646964083" lon="4.460704855338">
        <ele>4.6</ele>
        <time>2019-06-02T21:26:05Z</time>
      </trkpt>
      <trkpt lat="51.230358123809" lon="4.460815244961">
        <ele>4.6</ele>
        <time>2019-06-02T21:27:03Z</time>
      </trkpt>
      <trkpt lat="51.230327529874" lon="4.460818094807">
        <ele>5</ele>
        <time>2019-06-02T21:27:06Z</time>
      </trkpt>
      <trkpt lat="51.230055201943" lon="4.460898561047">
        <ele>12.2</ele>
        <time>2019-06-02T21:27:55Z</time>
      </trkpt>
      <trkpt lat="51.229614481641" lon="4.461079861544">
        <ele>10.2</ele>
        <time>2019-06-02T21:28:35Z</time>
      </trkpt>
      <trkpt lat="51.229596460556" lon="4.46110618071">
        <ele>9.2</ele>
        <time>2019-06-02T21:28:38Z</time>
      </trkpt>
      <trkpt lat="51.229603752809" lon="4.461135601179">
        <ele>5</ele>
        <time>2019-06-02T21:29:12Z</time>
      </trkpt>
      <trkpt lat="51.229679022271" lon="4.461106348348">
        <ele>3.6</ele>
        <time>2019-06-02T21:29:28Z</time>
      </trkpt>
      <trkpt lat="51.229880606966" lon="4.461513708688">
        <ele>6.2</ele>
        <time>2019-06-02T21:30:17Z</time>
      </trkpt>
      <trkpt lat="51.230009520588" lon="4.462072278504">
        <ele>3.4</ele>
        <time>2019-06-02T21:31:07Z</time>
      </trkpt>
      <trkpt lat="51.230185791945" lon="4.462737466088">
        <ele>1.6</ele>
        <time>2019-06-02T21:31:53Z</time>
      </trkpt>
      <trkpt lat="51.230368517365" lon="4.463396702523">
        <ele>3</ele>
        <time>2019-06-02T21:32:49Z</time>
      </trkpt>
      <trkpt lat="51.230391902866" lon="4.463434001978">
        <ele>2.8</ele>
        <time>2019-06-02T21:32:52Z</time>
      </trkpt>
      <trkpt lat="51.230239519924" lon="4.463985698636">
        <ele>3.4</ele>
        <time>2019-06-02T21:34:05Z</time>
      </trkpt>
      <trkpt lat="51.230093842502" lon="4.464103464331">
        <ele>5.8</ele>
        <time>2019-06-02T21:34:30Z</time>
      </trkpt>
      <trkpt lat="51.229821011657" lon="4.464273113987">
        <ele>4.4</ele>
        <time>2019-06-02T21:35:13Z</time>
      </trkpt>
      <trkpt lat="51.22960199261" lon="4.464279316593">
        <ele>4</ele>
        <time>2019-06-02T21:35:57Z</time>
      </trkpt>
      <trkpt lat="51.229376100405" lon="4.464299600791">
        <ele>6.4</ele>
        <time>2019-06-02T21:36:21Z</time>
      </trkpt>
      <trkpt lat="51.229328826489" lon="4.464194324127">
        <ele>6.2</ele>
        <time>2019-06-02T21:36:31Z</time>
      </trkpt>
      <trkpt lat="51.229267470981" lon="4.464193821213">
        <ele>5.4</ele>
        <time>2019-06-02T21:36:39Z</time>
      </trkpt>
      <trkpt lat="51.229204019998" lon="4.464117126828">
        <ele>5.2</ele>
        <time>2019-06-02T21:36:51Z</time>
      </trkpt>
      <trkpt lat="51.229193877899" lon="4.464086281436">
        <ele>5.2</ele>
        <time>2019-06-02T21:36:54Z</time>
      </trkpt>
      <trkpt lat="51.229208630043" lon="4.463878577954">
        <ele>3</ele>
        <time>2019-06-02T21:37:11Z</time>
      </trkpt>
      <trkpt lat="51.229218604504" lon="4.46377581586">
        <ele>3</ele>
        <time>2019-06-02T21:37:19Z</time>
      </trkpt>
      <trkpt lat="51.229214665011" lon="4.463726781745">
        <ele>2.8</ele>
        <time>2019-06-02T21:37:24Z</time>
      </trkpt>
      <trkpt lat="51.229213156269" lon="4.463681687123">
        <ele>3</ele>
        <time>2019-06-02T21:37:27Z</time>
      </trkpt>
      <trkpt lat="51.229197733573" lon="4.462961178999">
        <ele>0</ele>
        <time>2019-06-02T21:38:18Z</time>
      </trkpt>
      <trkpt lat="51.229178203746" lon="4.462767976204">
        <ele>0</ele>
        <time>2019-06-02T21:39:02Z</time>
      </trkpt>
      <trkpt lat="51.229143670318" lon="4.462602433679">
        <ele>0.6</ele>
        <time>2019-06-02T21:39:23Z</time>
      </trkpt>
      <trkpt lat="51.229066556838" lon="4.462461282483">
        <ele>9.2</ele>
        <time>2019-06-02T21:39:47Z</time>
      </trkpt>
      <trkpt lat="51.229139730825" lon="4.462007737874">
        <ele>6</ele>
        <time>2019-06-02T21:40:15Z</time>
      </trkpt>
      <trkpt lat="51.229034286523" lon="4.461901706839">
        <ele>8</ele>
        <time>2019-06-02T21:40:37Z</time>
      </trkpt>
      <trkpt lat="51.228896488087" lon="4.461681011412">
        <ele>9.6</ele>
        <time>2019-06-02T21:40:59Z</time>
      </trkpt>
      <trkpt lat="51.228554171291" lon="4.461335258037">
        <ele>3.4</ele>
        <time>2019-06-02T21:42:26Z</time>
      </trkpt>
      <trkpt lat="51.228480075295" lon="4.461344813403">
        <ele>13.8</ele>
        <time>2019-06-02T21:42:41Z</time>
      </trkpt>
      <trkpt lat="51.228356945184" lon="4.460979194925">
        <ele>21</ele>
        <time>2019-06-02T21:43:26Z</time>
      </trkpt>
      <trkpt lat="51.228150582806" lon="4.46048005278">
        <ele>6.8</ele>
        <time>2019-06-02T21:43:59Z</time>
      </trkpt>
      <trkpt lat="51.228319981005" lon="4.460131198102">
        <ele>5.8</ele>
        <time>2019-06-02T21:44:48Z</time>
      </trkpt>
      <trkpt lat="51.228315035684" lon="4.460093311914">
        <ele>6.2</ele>
        <time>2019-06-02T21:44:50Z</time>
      </trkpt>
      <trkpt lat="51.228413103914" lon="4.459525438189">
        <ele>10.2</ele>
        <time>2019-06-02T21:45:35Z</time>
      </trkpt>
      <trkpt lat="51.2284293648" lon="4.459500376308">
        <ele>10</ele>
        <time>2019-06-02T21:45:37Z</time>
      </trkpt>
      <trkpt lat="51.228561715001" lon="4.459204243781">
        <ele>3.4</ele>
        <time>2019-06-02T21:46:05Z</time>
      </trkpt>
      <trkpt lat="51.228540173518" lon="4.458763691117">
        <ele>5.8</ele>
        <time>2019-06-02T21:46:42Z</time>
      </trkpt>
      <trkpt lat="51.228539251509" lon="4.458150052218">
        <ele>13</ele>
        <time>2019-06-02T21:47:29Z</time>
      </trkpt>
      <trkpt lat="51.22848636172" lon="4.457424682592">
        <ele>9.8</ele>
        <time>2019-06-02T21:48:11Z</time>
      </trkpt>
      <trkpt lat="51.228501030045" lon="4.457310688752">
        <ele>9</ele>
        <time>2019-06-02T21:48:17Z</time>
      </trkpt>
      <trkpt lat="51.228545454115" lon="4.45726056499">
        <ele>6.8</ele>
        <time>2019-06-02T21:48:24Z</time>
      </trkpt>
      <trkpt lat="51.228803951911" lon="4.457080940873">
        <ele>3</ele>
        <time>2019-06-02T21:48:53Z</time>
      </trkpt>
      <trkpt lat="51.229076531299" lon="4.456966863214">
        <ele>4</ele>
        <time>2019-06-02T21:49:21Z</time>
      </trkpt>
      <trkpt lat="51.229498392326" lon="4.456694702921">
        <ele>9.2</ele>
        <time>2019-06-02T21:50:00Z</time>
      </trkpt>
      <trkpt lat="51.229673071122" lon="4.456764440329">
        <ele>5</ele>
        <time>2019-06-02T21:50:12Z</time>
      </trkpt>
      <trkpt lat="51.229786310591" lon="4.457189402659">
        <ele>1.2</ele>
        <time>2019-06-02T21:50:30Z</time>
      </trkpt>
      <trkpt lat="51.229807684436" lon="4.457445050609">
        <ele>1.6</ele>
        <time>2019-06-02T21:50:44Z</time>
      </trkpt>
      <trkpt lat="51.229812797395" lon="4.457562648666">
        <ele>0</ele>
        <time>2019-06-02T21:50:51Z</time>
      </trkpt>
      <trkpt lat="51.229839284199" lon="4.457814021847">
        <ele>0</ele>
        <time>2019-06-02T21:51:06Z</time>
      </trkpt>
      <trkpt lat="51.229830483204" lon="4.457920807253">
        <ele>2.2</ele>
        <time>2019-06-02T21:51:13Z</time>
      </trkpt>
      <trkpt lat="51.229640800807" lon="4.457945952953">
        <ele>11.4</ele>
        <time>2019-06-02T21:52:08Z</time>
      </trkpt>
    </trkseg>
  </trk>
</gpx>